Time,TemperatureF,DewpointF,PressureIn,WindDirection,WindDirectionDegrees,WindSpeedMPH,WindSpeedGustMPH,Humidity,HourlyPrecipIn,Conditions,Clouds,dailyrainin,SoftwareType,DateUTC
2013-05-20 00:04:00,53.1,49.3,29.88,West,270,0.0,0.0,87,0.00,,,0.00,pywws,2013-05-19 23:04:00,
2013-05-20 00:10:00,52.9,49.1,29.87,North,0,0.0,0.0,87,0.00,,,0.00,pywws,2013-05-19 23:10:00,
2013-05-20 00:16:00,52.7,49.2,29.87,West,270,0.0,0.0,88,0.00,,,0.00,pywws,2013-05-19 23:16:00,
2013-05-20 00:21:00,52.3,48.9,29.87,West,270,0.0,0.0,88,0.00,,,0.00,pywws,2013-05-19 23:21:00,
2013-05-20 00:27:00,52.2,48.7,29.88,West,270,0.0,0.0,88,0.00,,,0.00,pywws,2013-05-19 23:27:00,
2013-05-20 00:32:00,51.8,48.4,29.87,West,270,0.0,0.0,88,0.00,,,0.00,pywws,2013-05-19 23:32:00,
2013-05-20 00:38:00,51.4,48.3,29.87,West,270,0.0,0.0,89,0.00,,,0.00,pywws,2013-05-19 23:38:00,
2013-05-20 00:44:00,51.3,48.1,29.87,SW,225,0.0,1.6,89,0.00,,,0.00,pywws,2013-05-19 23:44:00,
2013-05-20 00:49:00,51.4,48.6,29.87,SW,225,0.0,0.0,90,0.00,,,0.00,pywws,2013-05-19 23:49:00,
2013-05-20 00:55:00,51.3,48.7,29.87,South,180,0.0,0.0,91,0.00,,,0.00,pywws,2013-05-19 23:55:00,
2013-05-20 01:00:00,51.3,49.0,29.87,NW,315,0.0,0.7,92,0.00,,,0.00,pywws,2013-05-20 00:00:00,
2013-05-20 01:05:00,51.4,49.5,29.86,NW,315,0.0,0.0,93,0.00,,,0.00,pywws,2013-05-20 00:05:00,
2013-05-20 01:11:00,51.8,49.8,29.86,West,270,0.0,2.2,93,0.00,,,0.00,pywws,2013-05-20 00:11:00,
2013-05-20 01:16:00,52.2,50.2,29.86,SW,225,0.7,3.1,93,0.00,,,0.00,pywws,2013-05-20 00:16:00,
2013-05-20 01:22:00,52.7,51.0,29.86,North,0,0.7,2.2,94,0.00,,,0.00,pywws,2013-05-20 00:22:00,
2013-05-20 01:28:00,53.1,51.4,29.86,North,0,0.0,1.6,94,0.00,,,0.00,pywws,2013-05-20 00:28:00,
2013-05-20 01:33:00,53.6,51.6,29.86,West,270,0.7,3.8,93,0.00,,,0.00,pywws,2013-05-20 00:33:00,
2013-05-20 01:39:00,54.1,51.9,29.86,NE,45,0.7,2.2,92,0.00,,,0.00,pywws,2013-05-20 00:39:00,
2013-05-20 01:44:00,54.3,51.7,29.86,West,270,1.6,3.1,91,0.00,,,0.00,pywws,2013-05-20 00:44:00,
2013-05-20 01:50:00,54.5,51.6,29.85,West,270,0.0,1.6,90,0.00,,,0.00,pywws,2013-05-20 00:50:00,
2013-05-20 01:56:00,54.7,51.5,29.85,North,0,0.7,2.2,89,0.00,,,0.00,pywws,2013-05-20 00:56:00,
2013-05-20 02:01:00,55.0,51.5,29.86,NW,315,0.7,3.8,88,0.00,,,0.00,pywws,2013-05-20 01:01:00,
2013-05-20 02:07:00,55.0,51.2,29.85,South,180,1.6,3.1,87,0.00,,,0.00,pywws,2013-05-20 01:07:00,
2013-05-20 02:12:00,55.2,51.4,29.85,NNW,338,0.7,2.2,87,0.00,,,0.00,pywws,2013-05-20 01:12:00,
2013-05-20 02:18:00,55.0,51.2,29.85,NW,315,0.7,2.2,87,0.00,,,0.00,pywws,2013-05-20 01:18:00,
2013-05-20 02:24:00,54.7,51.2,29.85,NW,315,2.2,4.5,88,0.00,,,0.00,pywws,2013-05-20 01:24:00,
2013-05-20 02:29:00,54.5,51.3,29.85,NE,45,0.0,3.1,89,0.00,,,0.00,pywws,2013-05-20 01:29:00,
2013-05-20 02:35:00,54.3,51.4,29.85,West,270,0.7,3.1,90,0.00,,,0.00,pywws,2013-05-20 01:35:00,
2013-05-20 02:40:00,54.3,51.7,29.85,North,0,1.6,5.4,91,0.00,,,0.00,pywws,2013-05-20 01:40:00,
2013-05-20 02:46:00,54.1,51.6,29.85,West,270,2.2,3.8,91,0.00,,,0.00,pywws,2013-05-20 01:46:00,
2013-05-20 02:52:00,54.1,51.6,29.85,North,0,1.6,5.4,91,0.00,,,0.00,pywws,2013-05-20 01:52:00,
2013-05-20 02:57:00,54.0,51.4,29.85,WNW,293,0.0,2.2,91,0.00,,,0.00,pywws,2013-05-20 01:57:00,
2013-05-20 03:02:00,54.1,51.6,29.85,NW,315,0.7,2.2,91,0.00,,,0.00,pywws,2013-05-20 02:02:00,
2013-05-20 03:08:00,54.0,51.4,29.85,SE,135,1.6,3.8,91,0.00,,,0.00,pywws,2013-05-20 02:08:00,
2013-05-20 03:13:00,53.8,51.2,29.84,West,270,0.7,2.2,91,0.00,,,0.00,pywws,2013-05-20 02:13:00,
2013-05-20 03:19:00,53.8,51.2,29.85,East,90,0.7,4.5,91,0.00,,,0.00,pywws,2013-05-20 02:19:00,
2013-05-20 03:25:00,54.3,52.0,29.84,NE,45,1.6,3.8,92,0.00,,,0.00,pywws,2013-05-20 02:25:00,
2013-05-20 03:30:00,53.8,51.5,29.84,NE,45,0.7,2.2,92,0.00,,,0.00,pywws,2013-05-20 02:30:00,
2013-05-20 03:36:00,53.8,51.5,29.83,West,270,1.6,3.1,92,0.00,,,0.00,pywws,2013-05-20 02:36:00,
2013-05-20 03:41:00,53.6,51.3,29.84,NNW,338,3.1,4.5,92,0.00,,,0.00,pywws,2013-05-20 02:41:00,
2013-05-20 03:47:00,53.6,51.3,29.84,NE,45,0.7,3.1,92,0.00,,,0.00,pywws,2013-05-20 02:47:00,
2013-05-20 03:52:00,53.4,51.2,29.83,North,0,0.7,3.1,92,0.00,,,0.00,pywws,2013-05-20 02:52:00,
2013-05-20 03:58:00,53.4,51.4,29.83,West,270,1.6,3.1,93,0.00,,,0.00,pywws,2013-05-20 02:58:00,
2013-05-20 04:04:00,53.4,51.4,29.83,NW,315,3.8,6.0,93,0.00,,,0.00,pywws,2013-05-20 03:04:00,
2013-05-20 04:09:00,53.4,51.2,29.83,NW,315,1.6,4.5,92,0.00,,,0.00,pywws,2013-05-20 03:09:00,
2013-05-20 04:15:00,53.2,51.3,29.83,NW,315,2.2,6.9,93,0.00,,,0.00,pywws,2013-05-20 03:15:00,
2013-05-20 04:20:00,53.2,51.3,29.83,SW,225,1.6,4.5,93,0.00,,,0.00,pywws,2013-05-20 03:20:00,
2013-05-20 04:26:00,53.2,51.3,29.83,West,270,2.2,4.5,93,0.00,,,0.00,pywws,2013-05-20 03:26:00,
2013-05-20 04:32:00,53.2,51.3,29.83,West,270,0.0,1.6,93,0.00,,,0.00,pywws,2013-05-20 03:32:00,
2013-05-20 04:37:00,53.2,51.3,29.83,NNW,338,3.1,7.6,93,0.00,,,0.00,pywws,2013-05-20 03:37:00,
2013-05-20 04:43:00,53.2,51.3,29.83,West,270,1.6,3.1,93,0.00,,,0.00,pywws,2013-05-20 03:43:00,
2013-05-20 04:48:00,53.1,51.1,29.83,North,0,1.6,3.8,93,0.00,,,0.00,pywws,2013-05-20 03:48:00,
2013-05-20 04:53:00,53.1,51.1,29.83,SW,225,2.2,3.8,93,0.00,,,0.00,pywws,2013-05-20 03:53:00,
2013-05-20 04:59:00,53.1,51.1,29.83,NW,315,1.6,3.1,93,0.00,,,0.00,pywws,2013-05-20 03:59:00,
2013-05-20 05:02:00,53.1,51.1,29.83,West,270,0.7,3.1,93,0.00,,,0.00,pywws,2013-05-20 04:02:00,
2013-05-20 05:04:00,53.1,51.1,29.82,NW,315,0.7,2.2,93,0.00,,,0.00,pywws,2013-05-20 04:04:00,
2013-05-20 05:08:00,53.1,51.1,29.83,North,0,0.7,1.6,93,0.00,,,0.00,pywws,2013-05-20 04:08:00,
2013-05-20 05:09:00,53.1,51.1,29.82,North,0,0.7,2.2,93,0.00,,,0.00,pywws,2013-05-20 04:09:00,
2013-05-20 05:15:00,53.1,51.4,29.83,North,0,1.6,3.8,94,0.00,,,0.00,pywws,2013-05-20 04:15:00,
2013-05-20 05:20:00,52.9,51.2,29.83,NE,45,1.6,3.1,94,0.00,,,0.00,pywws,2013-05-20 04:20:00,
2013-05-20 05:26:00,52.9,51.2,29.83,North,0,0.7,2.2,94,0.00,,,0.00,pywws,2013-05-20 04:26:00,
2013-05-20 05:32:00,52.9,51.2,29.83,NW,315,0.7,3.1,94,0.00,,,0.00,pywws,2013-05-20 04:32:00,
2013-05-20 05:37:00,52.9,51.2,29.83,South,180,0.0,0.7,94,0.00,,,0.00,pywws,2013-05-20 04:37:00,
2013-05-20 05:43:00,52.9,51.2,29.83,West,270,0.7,3.8,94,0.01,,,0.01,pywws,2013-05-20 04:43:00,
2013-05-20 05:48:00,52.9,51.2,29.83,East,90,0.0,1.6,94,0.01,,,0.01,pywws,2013-05-20 04:48:00,
2013-05-20 05:54:00,52.9,51.2,29.83,East,90,0.7,3.1,94,0.01,,,0.01,pywws,2013-05-20 04:54:00,
2013-05-20 06:00:00,53.1,51.4,29.83,West,270,3.1,6.9,94,0.01,,,0.01,pywws,2013-05-20 05:00:00,
2013-05-20 06:05:00,53.1,51.4,29.83,South,180,0.7,3.8,94,0.01,,,0.01,pywws,2013-05-20 05:05:00,
2013-05-20 06:11:00,53.1,51.4,29.83,WNW,293,1.6,3.8,94,0.01,,,0.01,pywws,2013-05-20 05:11:00,
2013-05-20 06:17:00,53.1,51.7,29.83,NW,315,0.7,3.1,95,0.01,,,0.01,pywws,2013-05-20 05:17:00,
2013-05-20 06:22:00,53.1,51.4,29.83,SW,225,0.0,1.6,94,0.01,,,0.01,pywws,2013-05-20 05:22:00,
2013-05-20 06:28:00,53.2,51.6,29.83,NW,315,0.7,1.6,94,0.01,,,0.01,pywws,2013-05-20 05:28:00,
2013-05-20 06:33:00,53.4,51.7,29.83,West,270,0.7,1.6,94,0.01,,,0.01,pywws,2013-05-20 05:33:00,
2013-05-20 06:39:00,53.4,51.7,29.83,West,270,0.7,2.2,94,0.00,,,0.01,pywws,2013-05-20 05:39:00,
2013-05-20 06:45:00,53.4,51.7,29.83,SW,225,2.2,3.8,94,0.00,,,0.01,pywws,2013-05-20 05:45:00,
2013-05-20 06:50:00,53.6,51.9,29.83,NNW,338,2.2,5.4,94,0.00,,,0.01,pywws,2013-05-20 05:50:00,
2013-05-20 06:56:00,53.8,52.1,29.82,NW,315,2.2,6.0,94,0.00,,,0.01,pywws,2013-05-20 05:56:00,
2013-05-20 07:01:00,53.8,52.1,29.82,NW,315,3.8,6.0,94,0.00,,,0.01,pywws,2013-05-20 06:01:00,
2013-05-20 07:07:00,54.0,52.3,29.82,NW,315,1.6,3.1,94,0.00,,,0.01,pywws,2013-05-20 06:07:00,
2013-05-20 07:12:00,54.0,52.3,29.82,North,0,2.2,5.4,94,0.00,,,0.01,pywws,2013-05-20 06:12:00,
2013-05-20 07:18:00,54.1,52.5,29.83,NW,315,1.6,3.1,94,0.00,,,0.01,pywws,2013-05-20 06:18:00,
2013-05-20 07:24:00,54.1,52.5,29.83,North,0,3.1,6.9,94,0.00,,,0.01,pywws,2013-05-20 06:24:00,
2013-05-20 07:29:00,54.3,52.6,29.83,WNW,293,1.6,3.1,94,0.00,,,0.01,pywws,2013-05-20 06:29:00,
2013-05-20 07:35:00,54.3,52.6,29.83,NW,315,2.2,4.5,94,0.00,,,0.01,pywws,2013-05-20 06:35:00,
2013-05-20 07:40:00,54.3,52.6,29.83,West,270,0.7,2.2,94,0.00,,,0.01,pywws,2013-05-20 06:40:00,
2013-05-20 07:46:00,54.5,53.1,29.83,NW,315,0.0,1.6,95,0.00,,,0.01,pywws,2013-05-20 06:46:00,
2013-05-20 07:52:00,54.5,53.1,29.83,North,0,2.2,6.9,95,0.00,,,0.01,pywws,2013-05-20 06:52:00,
2013-05-20 07:58:00,54.5,53.1,29.83,NNE,23,0.7,4.5,95,0.00,,,0.01,pywws,2013-05-20 06:58:00,
2013-05-20 08:03:00,54.5,53.4,29.83,NW,315,0.7,3.1,96,0.00,,,0.01,pywws,2013-05-20 07:03:00,
2013-05-20 08:08:00,54.7,53.6,29.83,NW,315,2.2,3.8,96,0.00,,,0.01,pywws,2013-05-20 07:08:00,
2013-05-20 08:14:00,54.7,53.6,29.83,NW,315,2.2,6.0,96,0.00,,,0.01,pywws,2013-05-20 07:14:00,
2013-05-20 08:19:00,54.9,53.7,29.83,West,270,3.1,4.5,96,0.00,,,0.01,pywws,2013-05-20 07:19:00,
2013-05-20 08:24:00,55.0,53.9,29.83,North,0,2.2,5.4,96,0.00,,,0.01,pywws,2013-05-20 07:24:00,
2013-05-20 08:30:00,55.2,54.1,29.83,North,0,1.6,3.8,96,0.00,,,0.01,pywws,2013-05-20 07:30:00,
2013-05-20 08:35:00,55.4,54.3,29.83,West,270,1.6,4.5,96,0.00,,,0.01,pywws,2013-05-20 07:35:00,
2013-05-20 08:40:00,55.6,54.2,29.83,North,0,1.6,3.1,95,0.00,,,0.01,pywws,2013-05-20 07:40:00,
2013-05-20 08:46:00,55.8,54.3,29.83,WNW,293,0.7,2.2,95,0.00,,,0.01,pywws,2013-05-20 07:46:00,
2013-05-20 08:51:00,55.8,54.3,29.83,NW,315,2.2,4.5,95,0.00,,,0.01,pywws,2013-05-20 07:51:00,
2013-05-20 08:57:00,55.9,54.5,29.83,South,180,2.2,3.8,95,0.00,,,0.01,pywws,2013-05-20 07:57:00,
2013-05-20 09:02:00,55.9,54.2,29.83,NW,315,1.6,5.4,94,0.00,,,0.01,pywws,2013-05-20 08:02:00,
2013-05-20 09:07:00,55.9,54.2,29.83,North,0,2.2,3.8,94,0.00,,,0.01,pywws,2013-05-20 08:07:00,
2013-05-20 09:12:00,56.1,54.7,29.83,NE,45,2.2,4.5,95,0.00,,,0.01,pywws,2013-05-20 08:12:00,
2013-05-20 09:18:00,56.1,54.7,29.83,WNW,293,1.6,3.1,95,0.00,,,0.01,pywws,2013-05-20 08:18:00,
2013-05-20 09:23:00,56.1,54.7,29.83,North,0,3.1,6.9,95,0.00,,,0.01,pywws,2013-05-20 08:23:00,
2013-05-20 09:29:00,56.1,54.7,29.83,NW,315,3.8,8.3,95,0.00,,,0.01,pywws,2013-05-20 08:29:00,
2013-05-20 09:34:00,56.3,54.9,29.83,NW,315,2.2,6.0,95,0.00,,,0.01,pywws,2013-05-20 08:34:00,
2013-05-20 09:39:00,56.3,54.9,29.83,NW,315,1.6,4.5,95,0.00,,,0.01,pywws,2013-05-20 08:39:00,
2013-05-20 09:44:00,56.3,54.6,29.83,NW,315,3.8,9.2,94,0.00,,,0.01,pywws,2013-05-20 08:44:00,
2013-05-20 09:50:00,56.7,55.0,29.83,SW,225,2.2,6.9,94,0.00,,,0.01,pywws,2013-05-20 08:50:00,
2013-05-20 09:55:00,57.0,55.0,29.83,NW,315,3.8,6.0,93,0.00,,,0.01,pywws,2013-05-20 08:55:00,
2013-05-20 10:00:00,57.2,54.9,29.83,West,270,3.8,10.7,92,0.00,,,0.01,pywws,2013-05-20 09:00:00,
2013-05-20 10:06:00,57.4,55.1,29.83,SW,225,0.7,2.2,92,0.00,,,0.01,pywws,2013-05-20 09:06:00,
2013-05-20 10:11:00,57.7,55.1,29.83,NW,315,3.8,6.9,91,0.00,,,0.01,pywws,2013-05-20 09:11:00,
2013-05-20 10:16:00,58.1,55.2,29.83,North,0,3.1,6.0,90,0.00,,,0.01,pywws,2013-05-20 09:16:00,
2013-05-20 10:22:00,58.3,55.1,29.83,NW,315,2.2,4.5,89,0.00,,,0.01,pywws,2013-05-20 09:22:00,
2013-05-20 10:27:00,58.3,55.1,29.83,NW,315,4.5,7.6,89,0.00,,,0.01,pywws,2013-05-20 09:27:00,
2013-05-20 10:33:00,58.1,54.9,29.83,NE,45,3.8,9.2,89,0.00,,,0.01,pywws,2013-05-20 09:33:00,
2013-05-20 10:38:00,58.1,55.2,29.83,NW,315,2.2,4.5,90,0.00,,,0.01,pywws,2013-05-20 09:38:00,
2013-05-20 10:43:00,58.3,55.1,29.83,North,0,5.4,8.3,89,0.00,,,0.01,pywws,2013-05-20 09:43:00,
2013-05-20 10:48:00,58.3,55.1,29.83,NE,45,2.2,5.4,89,0.00,,,0.01,pywws,2013-05-20 09:48:00,
2013-05-20 10:54:00,58.3,55.1,29.83,WNW,293,3.1,6.9,89,0.00,,,0.01,pywws,2013-05-20 09:54:00,
2013-05-20 11:00:00,58.3,55.1,29.83,NW,315,5.4,9.2,89,0.00,,,0.01,pywws,2013-05-20 10:00:00,
2013-05-20 11:05:00,58.3,55.4,29.84,North,0,3.8,7.6,90,0.00,,,0.01,pywws,2013-05-20 10:05:00,
2013-05-20 11:11:00,58.5,55.5,29.83,North,0,1.6,3.8,90,0.00,,,0.01,pywws,2013-05-20 10:11:00,
2013-05-20 11:16:00,58.5,55.5,29.83,North,0,3.8,6.9,90,0.00,,,0.01,pywws,2013-05-20 10:16:00,
2013-05-20 11:22:00,58.5,55.5,29.83,North,0,3.1,6.9,90,0.00,,,0.01,pywws,2013-05-20 10:22:00,
2013-05-20 11:27:00,58.3,55.4,29.83,NW,315,3.8,6.0,90,0.00,,,0.01,pywws,2013-05-20 10:27:00,
2013-05-20 11:32:00,58.5,55.5,29.83,North,0,3.1,5.4,90,0.00,,,0.01,pywws,2013-05-20 10:32:00,
2013-05-20 11:38:00,58.5,55.8,29.83,NW,315,3.1,6.9,91,0.00,,,0.01,pywws,2013-05-20 10:38:00,
2013-05-20 11:44:00,58.8,55.9,29.83,West,270,3.8,6.9,90,0.00,,,0.01,pywws,2013-05-20 10:44:00,
2013-05-20 11:49:00,59.2,55.9,29.83,West,270,3.8,8.3,89,0.00,,,0.01,pywws,2013-05-20 10:49:00,
2013-05-20 11:55:00,59.2,55.9,29.83,NW,315,3.8,7.6,89,0.00,,,0.01,pywws,2013-05-20 10:55:00,
2013-05-20 12:00:00,58.8,55.6,29.83,North,0,3.8,6.9,89,0.00,,,0.01,pywws,2013-05-20 11:00:00,
2013-05-20 12:06:00,58.8,55.9,29.83,North,0,3.8,5.4,90,0.00,,,0.01,pywws,2013-05-20 11:06:00,
2013-05-20 12:12:00,59.0,56.1,29.83,NW,315,2.2,6.0,90,0.00,,,0.01,pywws,2013-05-20 11:12:00,
2013-05-20 12:17:00,59.2,56.2,29.83,NW,315,4.5,6.9,90,0.00,,,0.01,pywws,2013-05-20 11:17:00,
2013-05-20 12:23:00,59.4,56.4,29.83,NW,315,2.2,4.5,90,0.00,,,0.01,pywws,2013-05-20 11:23:00,
2013-05-20 12:28:00,59.5,56.6,29.83,West,270,1.6,3.8,90,0.00,,,0.01,pywws,2013-05-20 11:28:00,
2013-05-20 12:34:00,59.9,56.6,29.83,North,0,3.8,8.3,89,0.00,,,0.01,pywws,2013-05-20 11:34:00,
2013-05-20 12:40:00,59.9,56.6,29.83,WNW,293,1.6,4.5,89,0.00,,,0.01,pywws,2013-05-20 11:40:00,
2013-05-20 12:45:00,60.1,56.5,29.83,NW,315,3.8,7.6,88,0.00,,,0.01,pywws,2013-05-20 11:45:00,
2013-05-20 12:51:00,59.9,56.3,29.83,North,0,6.0,10.7,88,0.00,,,0.01,pywws,2013-05-20 11:51:00,
2013-05-20 12:56:00,60.1,56.5,29.83,WNW,293,3.1,5.4,88,0.00,,,0.01,pywws,2013-05-20 11:56:00,
2013-05-20 13:02:00,60.3,56.7,29.83,NW,315,3.1,7.6,88,0.00,,,0.01,pywws,2013-05-20 12:02:00,
2013-05-20 13:08:00,60.4,56.9,29.83,North,0,2.2,4.5,88,0.00,,,0.01,pywws,2013-05-20 12:08:00,
2013-05-20 13:13:00,60.6,56.7,29.83,NW,315,4.5,6.9,87,0.00,,,0.01,pywws,2013-05-20 12:13:00,
2013-05-20 13:19:00,61.0,57.1,29.83,North,0,2.2,6.9,87,0.00,,,0.01,pywws,2013-05-20 12:19:00,
2013-05-20 13:24:00,60.8,56.6,29.83,West,270,2.2,4.5,86,0.00,,,0.01,pywws,2013-05-20 12:24:00,
2013-05-20 13:31:00,60.8,56.9,29.83,NW,315,3.1,5.4,87,0.00,,,0.01,pywws,2013-05-20 12:31:00,
2013-05-20 13:36:00,60.8,56.9,29.84,NW,315,3.1,5.4,87,0.00,,,0.01,pywws,2013-05-20 12:36:00,
2013-05-20 13:42:00,60.6,56.7,29.84,West,270,3.8,8.3,87,0.00,,,0.01,pywws,2013-05-20 12:42:00,
2013-05-20 13:48:00,60.8,56.9,29.84,NW,315,4.5,7.6,87,0.00,,,0.01,pywws,2013-05-20 12:48:00,
2013-05-20 13:53:00,61.0,57.1,29.84,West,270,2.2,6.0,87,0.00,,,0.01,pywws,2013-05-20 12:53:00,
2013-05-20 13:59:00,61.0,57.1,29.84,West,270,3.8,6.0,87,0.00,,,0.01,pywws,2013-05-20 12:59:00,
2013-05-20 14:06:00,61.2,57.3,29.84,South,180,2.2,5.4,87,0.00,,,0.01,pywws,2013-05-20 13:06:00,
2013-05-20 14:11:00,61.3,57.1,29.84,NW,315,2.2,4.5,86,0.00,,,0.01,pywws,2013-05-20 13:11:00,
2013-05-20 14:17:00,61.5,57.0,29.84,NNW,338,4.5,7.6,85,0.00,,,0.01,pywws,2013-05-20 13:17:00,
2013-05-20 14:22:00,61.5,57.0,29.84,WNW,293,0.7,3.1,85,0.00,,,0.01,pywws,2013-05-20 13:22:00,
2013-05-20 14:28:00,61.9,57.3,29.84,North,0,2.2,6.9,85,0.00,,,0.01,pywws,2013-05-20 13:28:00,
2013-05-20 14:33:00,62.1,57.2,29.84,WNW,293,1.6,3.8,84,0.00,,,0.01,pywws,2013-05-20 13:33:00,
2013-05-20 14:39:00,62.2,57.3,29.84,West,270,2.2,5.4,84,0.00,,,0.01,pywws,2013-05-20 13:39:00,
2013-05-20 14:44:00,62.4,57.5,29.84,North,0,3.1,7.6,84,0.00,,,0.01,pywws,2013-05-20 13:44:00,
2013-05-20 14:51:00,62.2,57.0,29.84,NW,315,3.1,6.0,83,0.00,,,0.01,pywws,2013-05-20 13:51:00,
2013-05-20 14:56:00,62.2,57.3,29.84,NW,315,3.1,7.6,84,0.00,,,0.01,pywws,2013-05-20 13:56:00,
2013-05-20 15:02:00,62.2,57.3,29.85,NW,315,3.8,9.8,84,0.00,,,0.01,pywws,2013-05-20 14:02:00,
2013-05-20 15:08:00,62.4,57.5,29.84,NW,315,1.6,4.5,84,0.00,,,0.01,pywws,2013-05-20 14:08:00,
2013-05-20 15:13:00,62.8,57.5,29.85,West,270,0.7,2.2,83,0.00,,,0.01,pywws,2013-05-20 14:13:00,
2013-05-20 15:19:00,62.8,57.5,29.85,NE,45,3.1,6.0,83,0.00,,,0.01,pywws,2013-05-20 14:19:00,
2013-05-20 15:24:00,62.8,57.5,29.85,NW,315,0.7,3.1,83,0.00,,,0.01,pywws,2013-05-20 14:24:00,
2013-05-20 15:31:00,62.8,57.5,29.85,West,270,4.5,9.8,83,0.00,,,0.01,pywws,2013-05-20 14:31:00,
2013-05-20 15:36:00,63.0,57.7,29.85,North,0,1.6,3.8,83,0.00,,,0.01,pywws,2013-05-20 14:36:00,
2013-05-20 15:42:00,63.1,57.6,29.84,WNW,293,2.2,6.0,82,0.00,,,0.01,pywws,2013-05-20 14:42:00,
2013-05-20 15:48:00,63.3,57.7,29.84,NW,315,3.1,7.6,82,0.00,,,0.01,pywws,2013-05-20 14:48:00,
2013-05-20 15:53:00,63.5,57.9,29.84,NW,315,1.6,3.8,82,0.00,,,0.01,pywws,2013-05-20 14:53:00,
2013-05-20 15:59:00,63.7,57.7,29.84,NW,315,3.1,7.6,81,0.00,,,0.01,pywws,2013-05-20 14:59:00,
2013-05-20 16:04:00,63.9,57.9,29.84,NW,315,1.6,3.1,81,0.00,,,0.01,pywws,2013-05-20 15:04:00,
2013-05-20 16:11:00,64.6,58.3,29.84,West,270,3.8,9.2,80,0.00,,,0.01,pywws,2013-05-20 15:11:00,
2013-05-20 16:16:00,64.4,57.7,29.84,West,270,2.2,4.5,79,0.00,,,0.01,pywws,2013-05-20 15:16:00,
2013-05-20 16:22:00,64.0,57.7,29.84,NW,315,1.6,6.9,80,0.00,,,0.01,pywws,2013-05-20 15:22:00,
2013-05-20 16:28:00,63.9,57.9,29.85,NW,315,3.8,7.6,81,0.00,,,0.01,pywws,2013-05-20 15:28:00,
2013-05-20 16:33:00,63.7,57.7,29.85,North,0,3.1,6.0,81,0.00,,,0.01,pywws,2013-05-20 15:33:00,
2013-05-20 16:39:00,63.5,57.6,29.85,West,270,3.1,6.9,81,0.00,,,0.01,pywws,2013-05-20 15:39:00,
2013-05-20 16:44:00,63.3,58.1,29.85,NW,315,0.7,2.2,83,0.00,,,0.01,pywws,2013-05-20 15:44:00,
2013-05-20 16:51:00,63.5,58.2,29.85,North,0,3.1,5.4,83,0.00,,,0.01,pywws,2013-05-20 15:51:00,
2013-05-20 16:56:00,63.9,58.6,29.84,North,0,1.6,4.5,83,0.00,,,0.01,pywws,2013-05-20 15:56:00,
2013-05-20 17:01:00,64.0,58.1,29.85,WNW,293,2.2,5.4,81,0.00,,,0.01,pywws,2013-05-20 16:01:00,
2013-05-20 17:07:00,63.9,57.9,29.85,NE,45,3.8,6.9,81,0.00,,,0.01,pywws,2013-05-20 16:07:00,
2013-05-20 17:12:00,63.5,57.9,29.85,West,270,1.6,5.4,82,0.00,,,0.01,pywws,2013-05-20 16:12:00,
2013-05-20 17:18:00,63.3,58.1,29.85,East,90,1.6,4.5,83,0.00,,,0.01,pywws,2013-05-20 16:18:00,
2013-05-20 17:24:00,63.3,58.1,29.85,NW,315,0.7,2.2,83,0.00,,,0.01,pywws,2013-05-20 16:24:00,
2013-05-20 17:29:00,63.3,58.4,29.85,SE,135,0.7,2.2,84,0.00,,,0.01,pywws,2013-05-20 16:29:00,
2013-05-20 17:35:00,63.3,58.4,29.85,NW,315,1.6,3.8,84,0.00,,,0.01,pywws,2013-05-20 16:35:00,
2013-05-20 17:40:00,63.3,58.1,29.85,West,270,4.5,11.4,83,0.00,,,0.01,pywws,2013-05-20 16:40:00,
2013-05-20 17:46:00,63.1,58.2,29.86,NW,315,1.6,4.5,84,0.00,,,0.01,pywws,2013-05-20 16:46:00,
2013-05-20 17:52:00,63.3,58.4,29.85,NW,315,3.1,5.4,84,0.00,,,0.01,pywws,2013-05-20 16:52:00,
2013-05-20 17:57:00,63.9,58.6,29.85,North,0,2.2,4.5,83,0.00,,,0.01,pywws,2013-05-20 16:57:00,
2013-05-20 18:03:00,64.2,58.6,29.85,NW,315,2.2,4.5,82,0.00,,,0.01,pywws,2013-05-20 17:03:00,
2013-05-20 18:08:00,64.4,58.4,29.85,NW,315,1.6,7.6,81,0.00,,,0.01,pywws,2013-05-20 17:08:00,
2013-05-20 18:14:00,64.4,58.4,29.85,NW,315,3.1,6.9,81,0.00,,,0.01,pywws,2013-05-20 17:14:00,
2013-05-20 18:20:00,64.2,58.3,29.85,North,-999,2.2,4.5,81,0.00,,,0.01,pywws,2013-05-20 17:20:00,
2013-05-20 18:25:00,64.0,58.4,29.86,West,270,3.1,5.4,82,0.00,,,0.01,pywws,2013-05-20 17:25:00,
2013-05-20 18:31:00,63.9,58.6,29.86,NW,315,1.6,3.1,83,0.00,,,0.01,pywws,2013-05-20 17:31:00,
2013-05-20 18:36:00,63.7,58.4,29.85,North,0,0.7,3.1,83,0.00,,,0.01,pywws,2013-05-20 17:36:00,
2013-05-20 18:42:00,63.5,58.6,29.86,North,0,2.2,6.9,84,0.00,,,0.01,pywws,2013-05-20 17:42:00,
2013-05-20 18:48:00,63.3,58.4,29.86,NW,315,3.8,6.0,84,0.00,,,0.01,pywws,2013-05-20 17:48:00,
2013-05-20 18:53:00,63.3,58.4,29.86,NW,315,1.6,3.8,84,0.00,,,0.01,pywws,2013-05-20 17:53:00,
2013-05-20 18:59:00,63.3,58.7,29.86,North,0,1.6,3.1,85,0.00,,,0.01,pywws,2013-05-20 17:59:00,
2013-05-20 19:04:00,63.3,58.7,29.86,NW,315,1.6,4.5,85,0.00,,,0.01,pywws,2013-05-20 18:04:00,
2013-05-20 19:11:00,63.1,58.6,29.86,SW,225,2.2,4.5,85,0.00,,,0.01,pywws,2013-05-20 18:11:00,
2013-05-20 19:16:00,63.3,58.7,29.86,NW,315,0.7,3.1,85,0.00,,,0.01,pywws,2013-05-20 18:16:00,
2013-05-20 19:22:00,63.3,58.7,29.86,West,270,2.2,4.5,85,0.00,,,0.01,pywws,2013-05-20 18:22:00,
2013-05-20 19:28:00,63.5,58.9,29.86,West,270,2.2,6.0,85,0.00,,,0.01,pywws,2013-05-20 18:28:00,
2013-05-20 19:33:00,63.5,58.9,29.86,East,90,2.2,3.8,85,0.00,,,0.01,pywws,2013-05-20 18:33:00,
2013-05-20 19:39:00,63.7,58.8,29.86,North,0,2.2,3.8,84,0.00,,,0.01,pywws,2013-05-20 18:39:00,
2013-05-20 19:44:00,63.7,58.8,29.86,North,0,3.8,6.0,84,0.00,,,0.01,pywws,2013-05-20 18:44:00,
2013-05-20 19:50:00,63.7,58.8,29.86,North,0,1.6,3.8,84,0.00,,,0.01,pywws,2013-05-20 18:50:00,
2013-05-20 19:56:00,63.7,58.8,29.86,NW,315,0.7,1.6,84,0.00,,,0.01,pywws,2013-05-20 18:56:00,
2013-05-20 20:01:00,63.5,58.6,29.86,NW,315,0.7,2.2,84,0.00,,,0.01,pywws,2013-05-20 19:01:00,
2013-05-20 20:07:00,63.5,58.6,29.86,SW,225,1.6,4.5,84,0.00,,,0.01,pywws,2013-05-20 19:07:00,
2013-05-20 20:12:00,63.3,58.4,29.86,West,270,2.2,3.8,84,0.00,,,0.01,pywws,2013-05-20 19:12:00,
2013-05-20 20:18:00,63.3,58.7,29.86,SW,225,1.6,3.8,85,0.00,,,0.01,pywws,2013-05-20 19:18:00,
2013-05-20 20:24:00,63.1,58.6,29.86,NW,315,2.2,3.8,85,0.00,,,0.01,pywws,2013-05-20 19:24:00,
2013-05-20 20:29:00,63.1,58.6,29.87,NW,315,1.6,3.8,85,0.00,,,0.01,pywws,2013-05-20 19:29:00,
2013-05-20 20:35:00,63.1,58.6,29.87,NW,315,1.6,2.2,85,0.00,,,0.01,pywws,2013-05-20 19:35:00,
2013-05-20 20:40:00,63.0,58.7,29.87,NW,315,2.2,5.4,86,0.00,,,0.01,pywws,2013-05-20 19:40:00,
2013-05-20 20:46:00,63.0,58.7,29.87,NW,315,0.7,2.2,86,0.00,,,0.01,pywws,2013-05-20 19:46:00,
2013-05-20 20:52:00,63.0,58.7,29.88,NW,315,1.6,3.8,86,0.00,,,0.01,pywws,2013-05-20 19:52:00,
2013-05-20 20:57:00,63.0,58.7,29.88,NW,315,2.2,3.8,86,0.00,,,0.01,pywws,2013-05-20 19:57:00,
2013-05-20 21:03:00,63.0,59.0,29.88,NW,315,2.2,5.4,87,0.00,,,0.01,pywws,2013-05-20 20:03:00,
2013-05-20 21:08:00,62.8,58.8,29.88,NW,315,1.6,3.1,87,0.00,,,0.01,pywws,2013-05-20 20:08:00,
2013-05-20 21:14:00,62.8,58.8,29.88,North,0,2.2,3.8,87,0.00,,,0.01,pywws,2013-05-20 20:14:00,
2013-05-20 21:20:00,62.8,58.8,29.88,North,0,1.6,5.4,87,0.00,,,0.01,pywws,2013-05-20 20:20:00,
2013-05-20 21:25:00,62.8,58.8,29.88,North,0,2.2,4.5,87,0.00,,,0.01,pywws,2013-05-20 20:25:00,
2013-05-20 21:30:00,62.8,58.8,29.88,West,270,3.1,5.4,87,0.00,,,0.01,pywws,2013-05-20 20:30:00,
2013-05-20 21:36:00,62.8,58.8,29.88,NW,315,0.7,3.8,87,0.00,,,0.01,pywws,2013-05-20 20:36:00,
2013-05-20 21:41:00,62.8,58.8,29.88,West,270,2.2,6.0,87,0.00,,,0.01,pywws,2013-05-20 20:41:00,
2013-05-20 21:47:00,62.8,58.8,29.88,SE,135,2.2,4.5,87,0.00,,,0.01,pywws,2013-05-20 20:47:00,
2013-05-20 21:52:00,62.8,58.8,29.88,NNE,23,1.6,3.8,87,0.00,,,0.01,pywws,2013-05-20 20:52:00,
2013-05-20 21:58:00,62.8,58.8,29.88,NW,315,1.6,3.8,87,0.00,,,0.01,pywws,2013-05-20 20:58:00,
2013-05-20 22:04:00,62.8,58.8,29.88,NW,315,2.2,3.8,87,0.00,,,0.01,pywws,2013-05-20 21:04:00,
2013-05-20 22:09:00,62.8,58.8,29.88,West,270,1.6,3.1,87,0.00,,,0.01,pywws,2013-05-20 21:09:00,
2013-05-20 22:15:00,62.8,58.8,29.88,NW,315,1.6,3.8,87,0.00,,,0.01,pywws,2013-05-20 21:15:00,
2013-05-20 22:20:00,62.6,58.7,29.88,NW,315,3.1,6.9,87,0.00,,,0.01,pywws,2013-05-20 21:20:00,
2013-05-20 22:26:00,62.6,58.7,29.88,NE,45,1.6,3.8,87,0.00,,,0.01,pywws,2013-05-20 21:26:00,
2013-05-20 22:32:00,62.6,59.0,29.88,North,0,2.2,5.4,88,0.00,,,0.01,pywws,2013-05-20 21:32:00,
2013-05-20 22:37:00,62.6,59.0,29.88,NW,315,1.6,3.8,88,0.00,,,0.01,pywws,2013-05-20 21:37:00,
2013-05-20 22:43:00,62.6,59.0,29.88,SW,225,0.7,2.2,88,0.00,,,0.01,pywws,2013-05-20 21:43:00,
2013-05-20 22:48:00,62.6,59.0,29.88,SW,225,2.2,3.8,88,0.00,,,0.01,pywws,2013-05-20 21:48:00,
2013-05-20 22:54:00,62.4,58.8,29.89,NW,315,2.2,4.5,88,0.00,,,0.01,pywws,2013-05-20 21:54:00,
2013-05-20 23:00:00,62.4,57.8,29.88,NE,45,3.1,7.6,85,0.00,,,0.01,pywws,2013-05-20 22:00:00,
2013-05-20 23:05:00,62.4,57.8,29.88,North,0,1.6,3.8,85,0.00,,,0.01,pywws,2013-05-20 22:05:00,
2013-05-20 23:11:00,62.4,57.5,29.89,West,270,2.2,5.4,84,0.00,,,0.01,pywws,2013-05-20 22:11:00,
2013-05-20 23:16:00,62.4,57.2,29.89,North,0,1.6,3.8,83,0.00,,,0.01,pywws,2013-05-20 22:16:00,
2013-05-20 23:22:00,62.2,57.0,29.89,NW,315,0.7,2.2,83,0.00,,,0.01,pywws,2013-05-20 22:22:00,
2013-05-20 23:28:00,62.2,57.0,29.88,NW,315,0.7,3.1,83,0.00,,,0.01,pywws,2013-05-20 22:28:00,
2013-05-20 23:33:00,62.2,57.3,29.88,West,270,3.1,6.9,84,0.00,,,0.01,pywws,2013-05-20 22:33:00,
2013-05-20 23:39:00,62.2,57.3,29.88,NW,315,1.6,3.8,84,0.00,,,0.01,pywws,2013-05-20 22:39:00,
2013-05-20 23:44:00,62.2,57.3,29.88,North,0,3.1,6.0,84,0.00,,,0.01,pywws,2013-05-20 22:44:00,
2013-05-20 23:50:00,62.2,57.3,29.88,West,270,1.6,4.5,84,0.00,,,0.01,pywws,2013-05-20 22:50:00,
2013-05-20 23:56:00,62.1,57.2,29.88,SE,135,3.1,6.9,84,0.00,,,0.01,pywws,2013-05-20 22:56:00,